createdAt,value
2023-03-23T15:59:39.591Z,97701.72
2023-03-23T16:02:07.107Z,97695.59
2023-03-23T16:04:34.489Z,97703.25
2023-03-23T16:07:01.926Z,97699.56
2023-03-23T16:09:29.251Z,97694.75
2023-03-23T16:11:56.671Z,97696.09
2023-03-23T16:14:24.054Z,97692.06
2023-03-23T16:16:52.932Z,97699.75
2023-03-23T16:19:24.367Z,97695.03
2023-03-23T16:21:51.983Z,97691.44
2023-03-23T16:24:19.747Z,97690.38
2023-03-23T16:26:47.246Z,97691.22
2023-03-23T16:29:29.059Z,97683.28
2023-03-23T16:32:04.408Z,97691.25
2023-03-23T16:34:33.774Z,97697.22
2023-03-23T16:37:01.594Z,97700.34
2023-03-23T16:39:28.960Z,97691.75
2023-03-23T16:41:56.310Z,97696.91
2023-03-23T16:44:23.714Z,97699.09
2023-03-23T16:46:51.048Z,97703.09
2023-03-23T16:49:18.377Z,97705.41
2023-03-23T16:51:46.592Z,97699.25
2023-03-23T16:54:13.935Z,97703.09
2023-03-23T16:56:41.441Z,97700.22
2023-03-23T16:59:08.869Z,97702.38
2023-03-23T17:01:36.759Z,97704.91
2023-03-23T17:04:04.885Z,97702.41
2023-03-23T17:06:32.210Z,97701.88
2023-03-23T17:08:59.597Z,97695.94
2023-03-23T17:11:27.040Z,97694.91
2023-03-23T17:13:54.412Z,97697.78
2023-03-23T17:16:21.839Z,97684.25
2023-03-23T17:18:49.224Z,97691.06
2023-03-23T17:21:16.634Z,97684.56
2023-03-23T17:23:43.959Z,97691.06
2023-03-23T17:26:11.471Z,97686.41
2023-03-23T17:28:38.853Z,97689.06
2023-03-23T17:31:06.586Z,97681.25
2023-03-23T17:33:34.080Z,97678.78
2023-03-23T17:36:01.471Z,97681.28
2023-03-23T17:38:28.897Z,97682.78
2023-03-23T17:41:00.607Z,97680.47
2023-03-23T17:43:28.501Z,97683.97
2023-03-23T17:45:56.038Z,97682.47
2023-03-23T17:48:23.463Z,97678.78
2023-03-23T17:50:55.419Z,97679.63
2023-03-23T17:53:24.214Z,97676.63
2023-03-23T17:55:52.636Z,97677.94
2023-03-23T17:58:20.278Z,97678.63
2023-03-23T18:00:47.658Z,97679.94
2023-03-23T18:03:15.643Z,97679.78
2023-03-23T18:05:43.368Z,97677.94
2023-03-23T18:08:11.132Z,97686.44
2023-03-23T18:10:40.184Z,97684.06
2023-03-23T18:13:08.613Z,97684.56
2023-03-23T18:15:37.160Z,97689.25
2023-03-23T18:18:05.940Z,97688.91
2023-03-23T18:20:33.686Z,97693.38
2023-03-23T18:23:01.089Z,97693.38
2023-03-23T18:25:28.411Z,97695.94
2023-03-23T18:27:56.183Z,97683.94
2023-03-23T18:30:32.387Z,97688.44
2023-03-23T18:32:59.735Z,97689.44
2023-03-23T18:35:27.171Z,97694.91
2023-03-23T18:37:54.569Z,97686.56
2023-03-23T18:40:21.925Z,97684.91
2023-03-23T18:42:49.350Z,97688.09
2023-03-23T18:45:16.887Z,97683.75
2023-03-23T18:47:44.337Z,97681.38
2023-03-23T18:50:11.891Z,97683.88
2023-03-23T18:52:39.380Z,97683.38
2023-03-23T18:55:07.148Z,97674.91
2023-03-23T18:57:34.786Z,97678.19
2023-03-23T19:00:02.213Z,97680.06
2023-03-23T19:02:29.841Z,97689.22
2023-03-23T19:04:57.389Z,97690.22
2023-03-23T19:07:24.746Z,97688.75
2023-03-23T19:09:52.112Z,97688.56
2023-03-23T19:12:19.498Z,97684.41
2023-03-23T19:14:46.919Z,97690.25
2023-03-23T19:17:14.260Z,97693.44
2023-03-23T19:19:43.275Z,97690.75
2023-03-23T19:22:12.252Z,97696.56
2023-03-23T19:24:39.808Z,97694.06
2023-03-23T19:27:08.046Z,97696.19
2023-03-23T19:29:35.814Z,97688.06
2023-03-23T19:32:03.281Z,97697.44
2023-03-23T19:34:31.089Z,97694.59
2023-03-23T19:37:05.351Z,97690.59
2023-03-23T19:39:34.432Z,97690.25
2023-03-23T19:42:01.880Z,97699.38
2023-03-23T19:44:29.462Z,97697.22
2023-03-23T19:46:57.630Z,97704.75
2023-03-23T19:49:25.571Z,97703.41
2023-03-23T19:52:06.336Z,97697.22
2023-03-23T19:54:38.677Z,97700.91
2023-03-23T19:57:06.543Z,97701.06
2023-03-23T19:59:34.027Z,97697.88
2023-03-23T20:02:02.097Z,97702.56
2023-03-23T20:04:29.637Z,97691.88
2023-03-23T20:06:57.277Z,97698.91
2023-03-23T20:09:25.312Z,97694.91
2023-03-23T20:11:53.693Z,97689.13
2023-03-23T20:14:21.252Z,97692.09
2023-03-23T20:16:48.623Z,97695.13
2023-03-23T20:19:16.458Z,97688.81
2023-03-23T20:21:44.920Z,97692.66
2023-03-23T20:24:12.366Z,97695.81
2023-03-23T20:26:43.176Z,97691.31
2023-03-23T20:29:11.284Z,97690.84
2023-03-23T20:31:40.735Z,97685.66
2023-03-23T20:34:10.853Z,97678.84
2023-03-23T20:36:41.995Z,97693.50
2023-03-23T20:39:21.017Z,97681.69
2023-03-23T20:41:54.444Z,97682.34
2023-03-23T20:44:25.201Z,97679.44
2023-03-23T20:46:53.758Z,97679.44
2023-03-23T20:49:22.029Z,97670.63
2023-03-23T20:51:50.725Z,97673.59
2023-03-23T20:54:19.888Z,97670.25
2023-03-23T20:56:48.142Z,97676.25
2023-03-23T20:59:16.564Z,97663.44
2023-03-23T21:01:44.886Z,97670.94
2023-03-23T21:04:16.341Z,97658.47
2023-03-23T21:06:44.846Z,97656.06
2023-03-23T21:09:13.231Z,97657.38
2023-03-23T21:11:41.026Z,97656.63
2023-03-23T21:14:09.099Z,97656.81
2023-03-23T21:16:36.987Z,97654.97
2023-03-23T21:19:05.605Z,97656.81
2023-03-23T21:21:34.159Z,97651.97
2023-03-23T21:24:01.784Z,97647.81
2023-03-23T21:26:30.658Z,97645.00
2023-03-23T21:29:01.220Z,97650.00
2023-03-23T21:31:31.581Z,97646.47
2023-03-23T21:33:59.758Z,97644.16
2023-03-23T21:36:27.556Z,97651.03
2023-03-23T21:38:55.710Z,97630.03
2023-03-23T21:41:23.675Z,97623.72
2023-03-23T21:43:51.542Z,97617.56
2023-03-23T21:46:18.986Z,97622.28
2023-03-23T21:48:51.191Z,97622.44
2023-03-23T21:51:24.091Z,97623.22
2023-03-23T21:53:54.251Z,97623.41
2023-03-23T21:56:23.732Z,97615.44
2023-03-23T21:58:51.653Z,97608.28
2023-03-23T22:01:19.399Z,97605.00
2023-03-23T22:03:47.019Z,97600.66
2023-03-23T22:06:18.269Z,97597.44
2023-03-23T22:08:46.725Z,97586.66
2023-03-23T22:11:20.519Z,97585.88
2023-03-23T22:13:48.950Z,97577.75
2023-03-23T22:16:18.387Z,97580.09
2023-03-23T22:18:46.571Z,97574.31
2023-03-23T22:21:15.221Z,97572.97
2023-03-23T22:23:43.776Z,97570.47
2023-03-23T22:26:12.182Z,97566.66
2023-03-23T22:28:40.459Z,97562.03
2023-03-23T22:31:13.172Z,97555.84
2023-03-23T22:33:40.921Z,97547.38
2023-03-23T22:36:08.982Z,97543.56
2023-03-23T22:38:37.860Z,97535.22
2023-03-23T22:41:09.109Z,97525.44
2023-03-23T22:43:37.555Z,97518.63
2023-03-23T22:46:06.044Z,97513.63
2023-03-23T22:48:33.797Z,97497.00
2023-03-23T22:51:01.592Z,97501.19
2023-03-23T22:53:29.171Z,97497.38
2023-03-23T22:55:57.502Z,97491.41
2023-03-23T22:58:26.832Z,97487.56
2023-03-23T23:01:03.063Z,97476.63
2023-03-23T23:03:31.232Z,97482.25
2023-03-23T23:05:59.492Z,97471.78
2023-03-23T23:08:28.591Z,97487.25
2023-03-23T23:10:58.597Z,97494.97
2023-03-23T23:13:26.922Z,97483.47
2023-03-23T23:15:56.581Z,97493.94
2023-03-23T23:18:24.920Z,97479.47
2023-03-23T23:20:55.411Z,97477.16
2023-03-23T23:23:23.906Z,97479.44
2023-03-23T23:25:51.662Z,97493.22
2023-03-23T23:28:20.289Z,97489.03
2023-03-23T23:30:48.479Z,97486.19
2023-03-23T23:33:16.533Z,97486.97
2023-03-23T23:35:43.930Z,97473.00
2023-03-23T23:38:12.607Z,97477.44
2023-03-23T23:40:44.210Z,97466.19
2023-03-23T23:43:12.938Z,97463.34
2023-03-23T23:45:40.938Z,97471.72
2023-03-23T23:48:08.692Z,97475.31
2023-03-23T23:50:36.575Z,97478.28
2023-03-23T23:53:04.986Z,97485.31
2023-03-23T23:55:32.722Z,97465.56
2023-03-23T23:58:00.286Z,97471.31
